sensor_id;sensor_type;location;lat;lon;timestamp;P1;durP1;ratioP1;P2;durP2;ratioP2
12623;SDS011;6377;42.836;23.998;2023-02-15T00:00:34;78.40;;;44.03;;
12623;SDS011;6377;42.836;23.998;2023-02-15T00:03:02;78.60;;;43.77;;
12623;SDS011;6377;42.836;23.998;2023-02-15T00:05:30;65.20;;;38.10;;
12623;SDS011;6377;42.836;23.998;2023-02-15T00:07:59;66.73;;;38.43;;
12623;SDS011;6377;42.836;23.998;2023-02-15T00:10:26;69.73;;;39.97;;
12623;SDS011;6377;42.836;23.998;2023-02-15T00:12:54;68.17;;;36.43;;
12623;SDS011;6377;42.836;23.998;2023-02-15T00:15:22;68.83;;;39.13;;
12623;SDS011;6377;42.836;23.998;2023-02-15T00:17:51;59.40;;;34.63;;
12623;SDS011;6377;42.836;23.998;2023-02-15T00:20:18;54.03;;;32.40;;
12623;SDS011;6377;42.836;23.998;2023-02-15T00:22:47;43.67;;;26.23;;
12623;SDS011;6377;42.836;23.998;2023-02-15T00:25:16;40.27;;;22.13;;
12623;SDS011;6377;42.836;23.998;2023-02-15T00:27:43;39.63;;;23.93;;
12623;SDS011;6377;42.836;23.998;2023-02-15T00:30:11;39.37;;;21.27;;
12623;SDS011;6377;42.836;23.998;2023-02-15T00:32:42;34.77;;;19.27;;
12623;SDS011;6377;42.836;23.998;2023-02-15T00:35:10;45.57;;;26.83;;
12623;SDS011;6377;42.836;23.998;2023-02-15T00:37:37;72.40;;;38.57;;
12623;SDS011;6377;42.836;23.998;2023-02-15T00:40:05;76.23;;;40.57;;
12623;SDS011;6377;42.836;23.998;2023-02-15T00:42:34;75.60;;;40.83;;
12623;SDS011;6377;42.836;23.998;2023-02-15T00:45:02;65.17;;;36.40;;
12623;SDS011;6377;42.836;23.998;2023-02-15T00:47:30;67.30;;;36.33;;
12623;SDS011;6377;42.836;23.998;2023-02-15T00:49:57;49.33;;;28.53;;
12623;SDS011;6377;42.836;23.998;2023-02-15T00:52:24;54.33;;;30.43;;
12623;SDS011;6377;42.836;23.998;2023-02-15T00:54:52;73.13;;;41.23;;
12623;SDS011;6377;42.836;23.998;2023-02-15T00:57:19;111.20;;;55.73;;
12623;SDS011;6377;42.836;23.998;2023-02-15T00:59:48;96.13;;;50.50;;
12623;SDS011;6377;42.836;23.998;2023-02-15T01:02:15;89.10;;;45.10;;
12623;SDS011;6377;42.836;23.998;2023-02-15T01:04:43;102.70;;;53.53;;
12623;SDS011;6377;42.836;23.998;2023-02-15T01:07:10;99.60;;;52.07;;
12623;SDS011;6377;42.836;23.998;2023-02-15T01:09:38;108.63;;;54.93;;
12623;SDS011;6377;42.836;23.998;2023-02-15T01:12:05;99.20;;;52.73;;
12623;SDS011;6377;42.836;23.998;2023-02-15T01:14:33;93.80;;;51.57;;
12623;SDS011;6377;42.836;23.998;2023-02-15T01:17:02;100.37;;;51.80;;
12623;SDS011;6377;42.836;23.998;2023-02-15T01:19:30;108.17;;;55.70;;
12623;SDS011;6377;42.836;23.998;2023-02-15T01:21:57;104.73;;;55.23;;
12623;SDS011;6377;42.836;23.998;2023-02-15T01:24:25;104.73;;;53.67;;
12623;SDS011;6377;42.836;23.998;2023-02-15T01:26:52;101.63;;;54.73;;
12623;SDS011;6377;42.836;23.998;2023-02-15T01:29:19;104.27;;;56.23;;
12623;SDS011;6377;42.836;23.998;2023-02-15T01:31:47;102.63;;;54.90;;
12623;SDS011;6377;42.836;23.998;2023-02-15T01:34:16;105.77;;;56.10;;
12623;SDS011;6377;42.836;23.998;2023-02-15T01:36:43;99.83;;;52.67;;
12623;SDS011;6377;42.836;23.998;2023-02-15T01:39:11;99.77;;;53.53;;
12623;SDS011;6377;42.836;23.998;2023-02-15T01:41:38;124.87;;;63.23;;
12623;SDS011;6377;42.836;23.998;2023-02-15T01:47:07;129.87;;;67.10;;
12623;SDS011;6377;42.836;23.998;2023-02-15T01:49:38;131.07;;;66.67;;
12623;SDS011;6377;42.836;23.998;2023-02-15T01:52:08;146.73;;;72.07;;
12623;SDS011;6377;42.836;23.998;2023-02-15T01:54:39;112.07;;;60.73;;
12623;SDS011;6377;42.836;23.998;2023-02-15T01:57:13;127.73;;;67.70;;
12623;SDS011;6377;42.836;23.998;2023-02-15T01:59:45;122.77;;;66.43;;
12623;SDS011;6377;42.836;23.998;2023-02-15T02:02:17;116.10;;;62.80;;
12623;SDS011;6377;42.836;23.998;2023-02-15T02:04:48;122.53;;;66.17;;
12623;SDS011;6377;42.836;23.998;2023-02-15T02:07:17;108.73;;;57.77;;
12623;SDS011;6377;42.836;23.998;2023-02-15T02:09:47;140.03;;;71.20;;
12623;SDS011;6377;42.836;23.998;2023-02-15T02:12:15;118.83;;;64.40;;
12623;SDS011;6377;42.836;23.998;2023-02-15T02:14:44;121.57;;;62.40;;
12623;SDS011;6377;42.836;23.998;2023-02-15T02:17:15;87.93;;;48.40;;
12623;SDS011;6377;42.836;23.998;2023-02-15T02:23:05;68.47;;;38.47;;
12623;SDS011;6377;42.836;23.998;2023-02-15T02:31:55;65.80;;;37.23;;
12623;SDS011;6377;42.836;23.998;2023-02-15T02:34:44;55.57;;;33.40;;
12623;SDS011;6377;42.836;23.998;2023-02-15T02:37:19;63.63;;;35.07;;
12623;SDS011;6377;42.836;23.998;2023-02-15T02:39:52;75.43;;;43.23;;
12623;SDS011;6377;42.836;23.998;2023-02-15T02:42:25;83.57;;;46.57;;
12623;SDS011;6377;42.836;23.998;2023-02-15T02:45:00;86.40;;;49.07;;
12623;SDS011;6377;42.836;23.998;2023-02-15T02:47:32;88.10;;;48.17;;
12623;SDS011;6377;42.836;23.998;2023-02-15T02:50:06;86.20;;;48.40;;
12623;SDS011;6377;42.836;23.998;2023-02-15T02:52:36;87.83;;;49.00;;
12623;SDS011;6377;42.836;23.998;2023-02-15T02:55:09;88.97;;;50.53;;
12623;SDS011;6377;42.836;23.998;2023-02-15T02:57:42;94.53;;;50.67;;
12623;SDS011;6377;42.836;23.998;2023-02-15T03:00:14;122.03;;;64.23;;
12623;SDS011;6377;42.836;23.998;2023-02-15T03:02:44;114.53;;;60.33;;
12623;SDS011;6377;42.836;23.998;2023-02-15T03:05:16;96.80;;;53.77;;
12623;SDS011;6377;42.836;23.998;2023-02-15T03:07:49;94.80;;;50.93;;
12623;SDS011;6377;42.836;23.998;2023-02-15T03:10:18;95.30;;;53.07;;
12623;SDS011;6377;42.836;23.998;2023-02-15T03:12:50;92.70;;;52.17;;
12623;SDS011;6377;42.836;23.998;2023-02-15T03:15:20;93.77;;;51.67;;
12623;SDS011;6377;42.836;23.998;2023-02-15T03:18:13;91.03;;;50.30;;
12623;SDS011;6377;42.836;23.998;2023-02-15T03:20:45;91.17;;;50.60;;
12623;SDS011;6377;42.836;23.998;2023-02-15T03:23:15;91.17;;;49.93;;
12623;SDS011;6377;42.836;23.998;2023-02-15T03:25:48;76.17;;;44.23;;
12623;SDS011;6377;42.836;23.998;2023-02-15T03:28:20;84.97;;;49.80;;
12623;SDS011;6377;42.836;23.998;2023-02-15T03:30:51;86.03;;;50.23;;
12623;SDS011;6377;42.836;23.998;2023-02-15T03:33:22;88.30;;;49.37;;
12623;SDS011;6377;42.836;23.998;2023-02-15T03:35:54;92.00;;;51.23;;
12623;SDS011;6377;42.836;23.998;2023-02-15T03:38:29;99.27;;;53.37;;
12623;SDS011;6377;42.836;23.998;2023-02-15T03:41:01;136.67;;;62.20;;
12623;SDS011;6377;42.836;23.998;2023-02-15T03:43:39;114.97;;;59.77;;
12623;SDS011;6377;42.836;23.998;2023-02-15T03:46:17;97.10;;;51.13;;
12623;SDS011;6377;42.836;23.998;2023-02-15T03:48:49;93.60;;;49.30;;
12623;SDS011;6377;42.836;23.998;2023-02-15T03:51:21;97.37;;;50.47;;
12623;SDS011;6377;42.836;23.998;2023-02-15T03:54:04;101.63;;;51.77;;
12623;SDS011;6377;42.836;23.998;2023-02-15T03:56:35;86.13;;;46.17;;
12623;SDS011;6377;42.836;23.998;2023-02-15T03:59:04;97.87;;;48.73;;
12623;SDS011;6377;42.836;23.998;2023-02-15T04:01:52;95.67;;;48.17;;
12623;SDS011;6377;42.836;23.998;2023-02-15T04:04:33;99.67;;;51.87;;
12623;SDS011;6377;42.836;23.998;2023-02-15T04:07:04;90.13;;;49.10;;
12623;SDS011;6377;42.836;23.998;2023-02-15T04:09:33;95.83;;;49.50;;
12623;SDS011;6377;42.836;23.998;2023-02-15T04:12:18;91.13;;;51.67;;
12623;SDS011;6377;42.836;23.998;2023-02-15T04:14:46;91.03;;;49.80;;
12623;SDS011;6377;42.836;23.998;2023-02-15T04:17:31;97.57;;;51.33;;
12623;SDS011;6377;42.836;23.998;2023-02-15T04:19:59;98.83;;;55.60;;
12623;SDS011;6377;42.836;23.998;2023-02-15T04:22:45;99.00;;;54.43;;
12623;SDS011;6377;42.836;23.998;2023-02-15T04:25:29;105.30;;;56.20;;
12623;SDS011;6377;42.836;23.998;2023-02-15T04:27:57;96.37;;;53.03;;
12623;SDS011;6377;42.836;23.998;2023-02-15T04:30:25;95.17;;;54.27;;
12623;SDS011;6377;42.836;23.998;2023-02-15T04:32:53;96.23;;;55.27;;
12623;SDS011;6377;42.836;23.998;2023-02-15T04:35:21;127.60;;;63.33;;
12623;SDS011;6377;42.836;23.998;2023-02-15T04:37:51;117.27;;;59.23;;
12623;SDS011;6377;42.836;23.998;2023-02-15T04:40:18;158.27;;;87.47;;
12623;SDS011;6377;42.836;23.998;2023-02-15T04:42:47;123.13;;;64.60;;
12623;SDS011;6377;42.836;23.998;2023-02-15T04:45:15;132.33;;;71.10;;
12623;SDS011;6377;42.836;23.998;2023-02-15T04:47:42;143.37;;;72.63;;
12623;SDS011;6377;42.836;23.998;2023-02-15T04:50:10;125.67;;;68.20;;
12623;SDS011;6377;42.836;23.998;2023-02-15T04:52:38;135.80;;;72.20;;
12623;SDS011;6377;42.836;23.998;2023-02-15T04:55:07;143.40;;;76.50;;
12623;SDS011;6377;42.836;23.998;2023-02-15T04:57:34;137.60;;;74.30;;
12623;SDS011;6377;42.836;23.998;2023-02-15T05:00:02;140.70;;;75.27;;
12623;SDS011;6377;42.836;23.998;2023-02-15T05:02:29;148.60;;;81.07;;
12623;SDS011;6377;42.836;23.998;2023-02-15T05:04:57;141.50;;;72.27;;
12623;SDS011;6377;42.836;23.998;2023-02-15T05:07:24;144.33;;;79.47;;
12623;SDS011;6377;42.836;23.998;2023-02-15T05:09:51;145.30;;;76.50;;
12623;SDS011;6377;42.836;23.998;2023-02-15T05:12:20;146.60;;;78.47;;
12623;SDS011;6377;42.836;23.998;2023-02-15T05:14:48;136.37;;;76.87;;
12623;SDS011;6377;42.836;23.998;2023-02-15T05:17:15;135.30;;;75.17;;
12623;SDS011;6377;42.836;23.998;2023-02-15T05:19:42;130.13;;;71.97;;
12623;SDS011;6377;42.836;23.998;2023-02-15T05:22:10;100.70;;;59.53;;
12623;SDS011;6377;42.836;23.998;2023-02-15T05:24:37;105.43;;;60.13;;
12623;SDS011;6377;42.836;23.998;2023-02-15T05:27:23;101.67;;;57.80;;
12623;SDS011;6377;42.836;23.998;2023-02-15T05:30:08;95.87;;;53.47;;
12623;SDS011;6377;42.836;23.998;2023-02-15T05:32:37;117.57;;;63.13;;
12623;SDS011;6377;42.836;23.998;2023-02-15T05:35:04;96.03;;;52.93;;
12623;SDS011;6377;42.836;23.998;2023-02-15T05:37:32;90.23;;;55.70;;
12623;SDS011;6377;42.836;23.998;2023-02-15T05:40:00;90.83;;;53.87;;
12623;SDS011;6377;42.836;23.998;2023-02-15T05:42:29;83.20;;;47.67;;
12623;SDS011;6377;42.836;23.998;2023-02-15T05:44:56;89.53;;;49.13;;
12623;SDS011;6377;42.836;23.998;2023-02-15T05:47:24;115.53;;;62.50;;
12623;SDS011;6377;42.836;23.998;2023-02-15T05:49:52;111.37;;;61.53;;
12623;SDS011;6377;42.836;23.998;2023-02-15T05:52:20;113.87;;;66.60;;
12623;SDS011;6377;42.836;23.998;2023-02-15T05:54:47;137.60;;;77.17;;
12623;SDS011;6377;42.836;23.998;2023-02-15T05:57:15;89.90;;;53.37;;
12623;SDS011;6377;42.836;23.998;2023-02-15T05:59:44;122.53;;;70.30;;
12623;SDS011;6377;42.836;23.998;2023-02-15T06:02:11;107.77;;;57.27;;
12623;SDS011;6377;42.836;23.998;2023-02-15T06:04:38;95.93;;;56.77;;
12623;SDS011;6377;42.836;23.998;2023-02-15T06:07:05;95.37;;;55.77;;
12623;SDS011;6377;42.836;23.998;2023-02-15T06:09:33;129.87;;;67.47;;
12623;SDS011;6377;42.836;23.998;2023-02-15T06:12:00;153.70;;;80.37;;
12623;SDS011;6377;42.836;23.998;2023-02-15T06:14:27;182.93;;;97.43;;
12623;SDS011;6377;42.836;23.998;2023-02-15T06:16:56;338.20;;;170.53;;
12623;SDS011;6377;42.836;23.998;2023-02-15T06:19:23;240.57;;;130.77;;
12623;SDS011;6377;42.836;23.998;2023-02-15T06:21:50;176.80;;;97.10;;
12623;SDS011;6377;42.836;23.998;2023-02-15T06:24:18;218.50;;;112.70;;
12623;SDS011;6377;42.836;23.998;2023-02-15T06:26:45;139.30;;;70.10;;
12623;SDS011;6377;42.836;23.998;2023-02-15T06:29:12;170.33;;;82.17;;
12623;SDS011;6377;42.836;23.998;2023-02-15T06:31:40;178.47;;;91.47;;
12623;SDS011;6377;42.836;23.998;2023-02-15T06:34:08;158.60;;;85.73;;
12623;SDS011;6377;42.836;23.998;2023-02-15T06:36:37;175.37;;;95.43;;
12623;SDS011;6377;42.836;23.998;2023-02-15T06:39:05;173.03;;;94.17;;
12623;SDS011;6377;42.836;23.998;2023-02-15T06:41:32;211.20;;;108.43;;
12623;SDS011;6377;42.836;23.998;2023-02-15T06:43:59;190.30;;;99.10;;
12623;SDS011;6377;42.836;23.998;2023-02-15T06:46:27;189.40;;;104.77;;
12623;SDS011;6377;42.836;23.998;2023-02-15T06:48:54;208.63;;;120.57;;
12623;SDS011;6377;42.836;23.998;2023-02-15T06:51:23;196.87;;;115.37;;
12623;SDS011;6377;42.836;23.998;2023-02-15T06:53:50;200.73;;;117.87;;
12623;SDS011;6377;42.836;23.998;2023-02-15T06:56:17;196.50;;;113.40;;
12623;SDS011;6377;42.836;23.998;2023-02-15T06:58:45;221.23;;;121.80;;
12623;SDS011;6377;42.836;23.998;2023-02-15T07:01:14;204.60;;;117.33;;
12623;SDS011;6377;42.836;23.998;2023-02-15T07:03:42;201.73;;;114.93;;
12623;SDS011;6377;42.836;23.998;2023-02-15T07:06:09;221.80;;;122.20;;
12623;SDS011;6377;42.836;23.998;2023-02-15T07:08:38;201.87;;;119.60;;
12623;SDS011;6377;42.836;23.998;2023-02-15T07:11:06;214.90;;;122.47;;
12623;SDS011;6377;42.836;23.998;2023-02-15T07:13:56;204.37;;;117.23;;
12623;SDS011;6377;42.836;23.998;2023-02-15T07:16:23;211.33;;;121.97;;
12623;SDS011;6377;42.836;23.998;2023-02-15T07:18:51;238.90;;;137.67;;
12623;SDS011;6377;42.836;23.998;2023-02-15T07:21:18;289.73;;;161.33;;
12623;SDS011;6377;42.836;23.998;2023-02-15T07:23:47;236.67;;;138.40;;
12623;SDS011;6377;42.836;23.998;2023-02-15T07:26:14;256.80;;;147.07;;
12623;SDS011;6377;42.836;23.998;2023-02-15T07:28:41;244.17;;;141.30;;
12623;SDS011;6377;42.836;23.998;2023-02-15T07:31:08;218.63;;;132.47;;
12623;SDS011;6377;42.836;23.998;2023-02-15T07:33:36;232.07;;;134.17;;
12623;SDS011;6377;42.836;23.998;2023-02-15T07:36:03;232.97;;;139.30;;
12623;SDS011;6377;42.836;23.998;2023-02-15T07:38:33;232.97;;;140.17;;
12623;SDS011;6377;42.836;23.998;2023-02-15T07:41:04;246.10;;;144.03;;
12623;SDS011;6377;42.836;23.998;2023-02-15T07:43:32;239.00;;;142.27;;
12623;SDS011;6377;42.836;23.998;2023-02-15T07:46:01;289.57;;;174.43;;
12623;SDS011;6377;42.836;23.998;2023-02-15T07:48:29;267.80;;;155.80;;
12623;SDS011;6377;42.836;23.998;2023-02-15T07:50:58;243.47;;;143.87;;
12623;SDS011;6377;42.836;23.998;2023-02-15T07:53:26;218.33;;;132.40;;
12623;SDS011;6377;42.836;23.998;2023-02-15T07:55:53;207.67;;;121.10;;
12623;SDS011;6377;42.836;23.998;2023-02-15T07:58:22;167.80;;;102.47;;
12623;SDS011;6377;42.836;23.998;2023-02-15T08:01:10;208.53;;;120.70;;
12623;SDS011;6377;42.836;23.998;2023-02-15T08:03:37;195.70;;;118.97;;
12623;SDS011;6377;42.836;23.998;2023-02-15T08:06:04;199.10;;;117.37;;
12623;SDS011;6377;42.836;23.998;2023-02-15T08:08:33;186.27;;;111.87;;
12623;SDS011;6377;42.836;23.998;2023-02-15T08:11:01;226.30;;;135.10;;
12623;SDS011;6377;42.836;23.998;2023-02-15T08:13:57;212.53;;;130.13;;
12623;SDS011;6377;42.836;23.998;2023-02-15T08:16:29;192.03;;;118.10;;
12623;SDS011;6377;42.836;23.998;2023-02-15T08:18:58;168.63;;;102.43;;
12623;SDS011;6377;42.836;23.998;2023-02-15T08:21:27;161.83;;;100.03;;
12623;SDS011;6377;42.836;23.998;2023-02-15T08:23:55;150.87;;;91.13;;
12623;SDS011;6377;42.836;23.998;2023-02-15T08:26:24;112.53;;;69.77;;
12623;SDS011;6377;42.836;23.998;2023-02-15T08:28:52;115.07;;;69.30;;
12623;SDS011;6377;42.836;23.998;2023-02-15T08:31:20;81.97;;;51.27;;
12623;SDS011;6377;42.836;23.998;2023-02-15T08:33:49;78.90;;;51.93;;
12623;SDS011;6377;42.836;23.998;2023-02-15T08:36:18;87.70;;;53.17;;
12623;SDS011;6377;42.836;23.998;2023-02-15T08:38:46;86.53;;;55.10;;
12623;SDS011;6377;42.836;23.998;2023-02-15T08:41:15;96.57;;;58.13;;
12623;SDS011;6377;42.836;23.998;2023-02-15T08:43:44;108.37;;;63.13;;
12623;SDS011;6377;42.836;23.998;2023-02-15T08:46:13;81.73;;;52.73;;
12623;SDS011;6377;42.836;23.998;2023-02-15T08:48:44;94.70;;;56.27;;
12623;SDS011;6377;42.836;23.998;2023-02-15T08:51:12;82.90;;;53.93;;
12623;SDS011;6377;42.836;23.998;2023-02-15T08:53:43;107.53;;;62.77;;
12623;SDS011;6377;42.836;23.998;2023-02-15T08:56:14;61.47;;;38.00;;
12623;SDS011;6377;42.836;23.998;2023-02-15T08:58:42;46.03;;;28.93;;
12623;SDS011;6377;42.836;23.998;2023-02-15T09:01:09;37.87;;;21.20;;
12623;SDS011;6377;42.836;23.998;2023-02-15T09:03:38;23.13;;;13.40;;
12623;SDS011;6377;42.836;23.998;2023-02-15T09:06:07;33.07;;;18.60;;
12623;SDS011;6377;42.836;23.998;2023-02-15T09:08:34;23.53;;;13.83;;
12623;SDS011;6377;42.836;23.998;2023-02-15T09:11:05;23.87;;;15.80;;
12623;SDS011;6377;42.836;23.998;2023-02-15T09:13:34;22.47;;;15.13;;
12623;SDS011;6377;42.836;23.998;2023-02-15T09:16:02;18.50;;;13.23;;
12623;SDS011;6377;42.836;23.998;2023-02-15T09:18:31;22.73;;;15.57;;
12623;SDS011;6377;42.836;23.998;2023-02-15T09:21:04;20.37;;;13.23;;
12623;SDS011;6377;42.836;23.998;2023-02-15T09:23:35;15.13;;;10.27;;
12623;SDS011;6377;42.836;23.998;2023-02-15T09:26:03;17.10;;;10.30;;
12623;SDS011;6377;42.836;23.998;2023-02-15T09:28:31;46.40;;;27.00;;
12623;SDS011;6377;42.836;23.998;2023-02-15T09:31:08;24.93;;;15.83;;
12623;SDS011;6377;42.836;23.998;2023-02-15T09:33:37;11.77;;;8.37;;
12623;SDS011;6377;42.836;23.998;2023-02-15T09:36:13;18.20;;;12.07;;
12623;SDS011;6377;42.836;23.998;2023-02-15T09:38:42;13.40;;;8.93;;
12623;SDS011;6377;42.836;23.998;2023-02-15T09:41:23;14.63;;;10.47;;
12623;SDS011;6377;42.836;23.998;2023-02-15T09:44:03;16.50;;;12.10;;
12623;SDS011;6377;42.836;23.998;2023-02-15T09:46:55;20.03;;;12.57;;
12623;SDS011;6377;42.836;23.998;2023-02-15T09:49:37;19.30;;;12.17;;
12623;SDS011;6377;42.836;23.998;2023-02-15T09:52:27;17.40;;;10.63;;
12623;SDS011;6377;42.836;23.998;2023-02-15T09:55:08;10.47;;;7.53;;
12623;SDS011;6377;42.836;23.998;2023-02-15T09:57:45;26.97;;;16.43;;
12623;SDS011;6377;42.836;23.998;2023-02-15T10:00:21;12.97;;;8.30;;
12623;SDS011;6377;42.836;23.998;2023-02-15T10:03:04;11.73;;;7.70;;
12623;SDS011;6377;42.836;23.998;2023-02-15T10:05:43;14.90;;;9.83;;
12623;SDS011;6377;42.836;23.998;2023-02-15T10:11:14;18.90;;;10.63;;
12623;SDS011;6377;42.836;23.998;2023-02-15T10:14:08;11.70;;;8.10;;
12623;SDS011;6377;42.836;23.998;2023-02-15T10:16:50;16.43;;;10.43;;
12623;SDS011;6377;42.836;23.998;2023-02-15T10:19:25;34.97;;;19.47;;
12623;SDS011;6377;42.836;23.998;2023-02-15T10:22:04;27.80;;;15.50;;
12623;SDS011;6377;42.836;23.998;2023-02-15T10:24:52;56.73;;;28.40;;
12623;SDS011;6377;42.836;23.998;2023-02-15T10:27:38;68.30;;;35.23;;
12623;SDS011;6377;42.836;23.998;2023-02-15T10:32:42;16.73;;;11.17;;
12623;SDS011;6377;42.836;23.998;2023-02-15T10:35:20;15.87;;;10.77;;
12623;SDS011;6377;42.836;23.998;2023-02-15T10:37:58;17.53;;;11.53;;
12623;SDS011;6377;42.836;23.998;2023-02-15T10:40:39;16.67;;;11.20;;
12623;SDS011;6377;42.836;23.998;2023-02-15T10:43:18;16.60;;;11.57;;
12623;SDS011;6377;42.836;23.998;2023-02-15T10:46:00;18.63;;;11.67;;
12623;SDS011;6377;42.836;23.998;2023-02-15T10:48:49;13.63;;;9.37;;
12623;SDS011;6377;42.836;23.998;2023-02-15T10:51:39;12.13;;;8.87;;
12623;SDS011;6377;42.836;23.998;2023-02-15T10:54:21;18.40;;;12.53;;
12623;SDS011;6377;42.836;23.998;2023-02-15T10:57:02;15.73;;;11.37;;
12623;SDS011;6377;42.836;23.998;2023-02-15T10:59:37;12.03;;;9.00;;
12623;SDS011;6377;42.836;23.998;2023-02-15T11:02:20;13.33;;;9.73;;
12623;SDS011;6377;42.836;23.998;2023-02-15T11:05:02;19.70;;;13.27;;
12623;SDS011;6377;42.836;23.998;2023-02-15T11:07:47;19.33;;;12.13;;
12623;SDS011;6377;42.836;23.998;2023-02-15T11:10:22;13.63;;;9.10;;
12623;SDS011;6377;42.836;23.998;2023-02-15T11:12:56;16.37;;;10.03;;
12623;SDS011;6377;42.836;23.998;2023-02-15T11:15:25;11.57;;;7.83;;
12623;SDS011;6377;42.836;23.998;2023-02-15T11:17:58;11.53;;;7.83;;
12623;SDS011;6377;42.836;23.998;2023-02-15T11:20:33;12.77;;;8.63;;
12623;SDS011;6377;42.836;23.998;2023-02-15T11:23:07;17.97;;;11.00;;
12623;SDS011;6377;42.836;23.998;2023-02-15T11:25:40;18.33;;;12.73;;
12623;SDS011;6377;42.836;23.998;2023-02-15T11:28:14;21.77;;;13.87;;
12623;SDS011;6377;42.836;23.998;2023-02-15T11:30:47;19.97;;;11.73;;
12623;SDS011;6377;42.836;23.998;2023-02-15T11:33:18;13.57;;;10.00;;
12623;SDS011;6377;42.836;23.998;2023-02-15T11:35:49;18.20;;;10.93;;
12623;SDS011;6377;42.836;23.998;2023-02-15T11:38:20;14.13;;;9.93;;
12623;SDS011;6377;42.836;23.998;2023-02-15T11:40:51;11.70;;;7.90;;
12623;SDS011;6377;42.836;23.998;2023-02-15T11:43:23;11.83;;;8.63;;
12623;SDS011;6377;42.836;23.998;2023-02-15T11:45:56;12.13;;;8.50;;
12623;SDS011;6377;42.836;23.998;2023-02-15T11:48:23;11.97;;;8.57;;
12623;SDS011;6377;42.836;23.998;2023-02-15T11:50:51;22.67;;;13.47;;
12623;SDS011;6377;42.836;23.998;2023-02-15T11:53:18;16.17;;;10.27;;
12623;SDS011;6377;42.836;23.998;2023-02-15T11:55:50;15.03;;;10.53;;
12623;SDS011;6377;42.836;23.998;2023-02-15T11:58:23;17.40;;;11.70;;
12623;SDS011;6377;42.836;23.998;2023-02-15T12:00:56;19.70;;;12.23;;
12623;SDS011;6377;42.836;23.998;2023-02-15T12:03:29;10.17;;;8.20;;
12623;SDS011;6377;42.836;23.998;2023-02-15T12:06:12;11.23;;;8.07;;
12623;SDS011;6377;42.836;23.998;2023-02-15T12:08:48;16.60;;;10.93;;
12623;SDS011;6377;42.836;23.998;2023-02-15T12:11:25;19.87;;;13.57;;
12623;SDS011;6377;42.836;23.998;2023-02-15T12:13:59;13.20;;;9.30;;
12623;SDS011;6377;42.836;23.998;2023-02-15T12:16:27;19.57;;;12.03;;
12623;SDS011;6377;42.836;23.998;2023-02-15T12:18:59;18.40;;;11.87;;
12623;SDS011;6377;42.836;23.998;2023-02-15T12:21:29;11.40;;;7.50;;
12623;SDS011;6377;42.836;23.998;2023-02-15T12:23:58;10.10;;;7.83;;
12623;SDS011;6377;42.836;23.998;2023-02-15T12:26:31;14.30;;;9.60;;
12623;SDS011;6377;42.836;23.998;2023-02-15T12:29:05;23.27;;;13.73;;
12623;SDS011;6377;42.836;23.998;2023-02-15T12:31:40;12.10;;;9.40;;
12623;SDS011;6377;42.836;23.998;2023-02-15T12:34:11;47.97;;;28.77;;
12623;SDS011;6377;42.836;23.998;2023-02-15T12:36:44;10.33;;;7.70;;
12623;SDS011;6377;42.836;23.998;2023-02-15T12:39:17;12.50;;;8.80;;
12623;SDS011;6377;42.836;23.998;2023-02-15T12:41:57;16.63;;;11.53;;
12623;SDS011;6377;42.836;23.998;2023-02-15T12:44:28;15.63;;;10.60;;
12623;SDS011;6377;42.836;23.998;2023-02-15T12:46:58;16.23;;;10.40;;
12623;SDS011;6377;42.836;23.998;2023-02-15T12:49:27;18.70;;;12.60;;
12623;SDS011;6377;42.836;23.998;2023-02-15T12:51:55;16.03;;;9.70;;
12623;SDS011;6377;42.836;23.998;2023-02-15T12:54:32;11.70;;;8.63;;
12623;SDS011;6377;42.836;23.998;2023-02-15T12:59:54;11.93;;;8.33;;
12623;SDS011;6377;42.836;23.998;2023-02-15T13:02:27;14.80;;;9.30;;
12623;SDS011;6377;42.836;23.998;2023-02-15T13:05:03;18.27;;;11.00;;
12623;SDS011;6377;42.836;23.998;2023-02-15T13:07:38;28.17;;;20.30;;
12623;SDS011;6377;42.836;23.998;2023-02-15T13:10:18;19.53;;;11.97;;
12623;SDS011;6377;42.836;23.998;2023-02-15T13:12:49;17.87;;;13.57;;
12623;SDS011;6377;42.836;23.998;2023-02-15T13:15:25;10.17;;;7.20;;
12623;SDS011;6377;42.836;23.998;2023-02-15T13:17:56;10.80;;;7.67;;
12623;SDS011;6377;42.836;23.998;2023-02-15T13:20:25;14.23;;;8.80;;
12623;SDS011;6377;42.836;23.998;2023-02-15T13:22:56;12.33;;;8.93;;
12623;SDS011;6377;42.836;23.998;2023-02-15T13:25:27;14.93;;;9.93;;
12623;SDS011;6377;42.836;23.998;2023-02-15T13:27:56;15.33;;;9.80;;
12623;SDS011;6377;42.836;23.998;2023-02-15T13:30:30;13.27;;;8.50;;
12623;SDS011;6377;42.836;23.998;2023-02-15T13:33:02;14.20;;;10.43;;
12623;SDS011;6377;42.836;23.998;2023-02-15T13:35:36;28.53;;;22.50;;
12623;SDS011;6377;42.836;23.998;2023-02-15T13:38:09;11.27;;;7.87;;
12623;SDS011;6377;42.836;23.998;2023-02-15T13:40:46;21.63;;;15.83;;
12623;SDS011;6377;42.836;23.998;2023-02-15T13:43:30;18.27;;;12.90;;
12623;SDS011;6377;42.836;23.998;2023-02-15T13:46:21;20.27;;;14.50;;
12623;SDS011;6377;42.836;23.998;2023-02-15T13:49:01;12.53;;;8.30;;
12623;SDS011;6377;42.836;23.998;2023-02-15T13:51:41;12.03;;;8.17;;
12623;SDS011;6377;42.836;23.998;2023-02-15T13:54:24;13.23;;;8.63;;
12623;SDS011;6377;42.836;23.998;2023-02-15T13:57:12;31.20;;;16.13;;
12623;SDS011;6377;42.836;23.998;2023-02-15T13:59:59;32.77;;;18.43;;
12623;SDS011;6377;42.836;23.998;2023-02-15T14:02:42;24.83;;;15.67;;
12623;SDS011;6377;42.836;23.998;2023-02-15T14:05:29;16.17;;;11.03;;
12623;SDS011;6377;42.836;23.998;2023-02-15T14:08:08;12.27;;;8.17;;
12623;SDS011;6377;42.836;23.998;2023-02-15T14:10:44;14.73;;;10.40;;
12623;SDS011;6377;42.836;23.998;2023-02-15T14:16:19;9.73;;;7.13;;
12623;SDS011;6377;42.836;23.998;2023-02-15T14:19:02;13.97;;;8.80;;
12623;SDS011;6377;42.836;23.998;2023-02-15T14:21:37;12.50;;;7.90;;
12623;SDS011;6377;42.836;23.998;2023-02-15T14:24:20;13.80;;;9.10;;
12623;SDS011;6377;42.836;23.998;2023-02-15T14:26:55;14.83;;;9.27;;
12623;SDS011;6377;42.836;23.998;2023-02-15T14:29:38;18.33;;;11.23;;
12623;SDS011;6377;42.836;23.998;2023-02-15T14:32:13;27.17;;;16.50;;
12623;SDS011;6377;42.836;23.998;2023-02-15T14:34:48;30.23;;;19.73;;
12623;SDS011;6377;42.836;23.998;2023-02-15T14:37:20;15.37;;;10.70;;
12623;SDS011;6377;42.836;23.998;2023-02-15T14:39:55;14.13;;;9.23;;
12623;SDS011;6377;42.836;23.998;2023-02-15T14:42:45;13.30;;;9.47;;
12623;SDS011;6377;42.836;23.998;2023-02-15T14:45:22;12.83;;;9.87;;
12623;SDS011;6377;42.836;23.998;2023-02-15T14:47:59;12.97;;;8.27;;
12623;SDS011;6377;42.836;23.998;2023-02-15T14:50:43;15.80;;;10.90;;
12623;SDS011;6377;42.836;23.998;2023-02-15T14:53:34;16.77;;;11.20;;
12623;SDS011;6377;42.836;23.998;2023-02-15T14:56:25;15.87;;;10.07;;
12623;SDS011;6377;42.836;23.998;2023-02-15T14:58:58;12.70;;;8.77;;
12623;SDS011;6377;42.836;23.998;2023-02-15T15:01:40;16.33;;;11.87;;
12623;SDS011;6377;42.836;23.998;2023-02-15T15:04:09;28.73;;;19.30;;
12623;SDS011;6377;42.836;23.998;2023-02-15T15:06:42;27.97;;;18.80;;
12623;SDS011;6377;42.836;23.998;2023-02-15T15:09:11;31.47;;;20.90;;
12623;SDS011;6377;42.836;23.998;2023-02-15T15:11:43;32.53;;;21.73;;